sensor_id;sensor_type;location;lat;lon;timestamp;pressure;altitude;pressure_sealevel;temperature;humidity
71915;BME280;60387;49.994;14.660;2023-04-21T00:00:07;97704.56;;;13.11;56.46
71915;BME280;60387;49.994;14.660;2023-04-21T00:02:40;97702.66;;;13.11;56.44
71915;BME280;60387;49.994;14.660;2023-04-21T00:05:14;97700.88;;;13.15;56.70
71915;BME280;60387;49.994;14.660;2023-04-21T00:07:47;97705.22;;;13.16;56.42
71915;BME280;60387;49.994;14.660;2023-04-21T00:10:20;97697.84;;;13.08;56.64
71915;BME280;60387;49.994;14.660;2023-04-21T00:12:54;97690.97;;;13.11;56.11
71915;BME280;60387;49.994;14.660;2023-04-21T00:15:27;97687.44;;;13.19;55.82
71915;BME280;60387;49.994;14.660;2023-04-21T00:18:00;97684.91;;;13.22;56.10
71915;BME280;60387;49.994;14.660;2023-04-21T00:20:34;97686.81;;;13.13;56.15
71915;BME280;60387;49.994;14.660;2023-04-21T00:23:08;97692.72;;;13.07;56.15
71915;BME280;60387;49.994;14.660;2023-04-21T00:25:41;97684.56;;;13.07;56.33
71915;BME280;60387;49.994;14.660;2023-04-21T00:28:14;97688.53;;;13.01;56.27
71915;BME280;60387;49.994;14.660;2023-04-21T00:30:47;97697.03;;;12.99;56.43
71915;BME280;60387;49.994;14.660;2023-04-21T00:33:21;97694.94;;;12.96;56.41
71915;BME280;60387;49.994;14.660;2023-04-21T00:35:54;97690.78;;;12.99;56.36
71915;BME280;60387;49.994;14.660;2023-04-21T00:38:27;97695.53;;;12.93;56.06
71915;BME280;60387;49.994;14.660;2023-04-21T00:41:01;97700.16;;;12.93;56.56
71915;BME280;60387;49.994;14.660;2023-04-21T00:43:34;97685.78;;;12.92;56.33
71915;BME280;60387;49.994;14.660;2023-04-21T00:46:07;97687.88;;;12.87;56.54
71915;BME280;60387;49.994;14.660;2023-04-21T00:48:40;97681.44;;;12.83;56.52
71915;BME280;60387;49.994;14.660;2023-04-21T00:51:14;97687.34;;;12.85;56.59
71915;BME280;60387;49.994;14.660;2023-04-21T00:53:47;97678.72;;;12.75;56.67
71915;BME280;60387;49.994;14.660;2023-04-21T00:56:22;97688.31;;;12.80;57.10
71915;BME280;60387;49.994;14.660;2023-04-21T00:58:57;97680.63;;;12.74;57.08
71915;BME280;60387;49.994;14.660;2023-04-21T01:01:31;97684.00;;;12.79;57.09
71915;BME280;60387;49.994;14.660;2023-04-21T01:04:04;97692.16;;;12.79;57.08
71915;BME280;60387;49.994;14.660;2023-04-21T01:06:38;97685.41;;;12.77;56.61
71915;BME280;60387;49.994;14.660;2023-04-21T01:09:13;97683.81;;;12.76;56.88
71915;BME280;60387;49.994;14.660;2023-04-21T01:12:19;97689.59;;;12.75;56.78
71915;BME280;60387;49.994;14.660;2023-04-21T01:14:52;97680.94;;;12.73;56.54
71915;BME280;60387;49.994;14.660;2023-04-21T01:17:25;97680.13;;;12.72;57.33
71915;BME280;60387;49.994;14.660;2023-04-21T01:20:00;97676.78;;;12.67;56.55
71915;BME280;60387;49.994;14.660;2023-04-21T01:22:36;97665.41;;;12.65;57.05
71915;BME280;60387;49.994;14.660;2023-04-21T01:25:10;97668.75;;;12.62;56.86
71915;BME280;60387;49.994;14.660;2023-04-21T01:27:43;97663.78;;;12.55;57.00
71915;BME280;60387;49.994;14.660;2023-04-21T01:30:16;97676.06;;;12.53;57.57
71915;BME280;60387;49.994;14.660;2023-04-21T01:32:50;97670.94;;;12.43;57.10
71915;BME280;60387;49.994;14.660;2023-04-21T01:35:23;97658.81;;;12.49;57.88
71915;BME280;60387;49.994;14.660;2023-04-21T01:37:56;97668.06;;;12.48;57.95
71915;BME280;60387;49.994;14.660;2023-04-21T01:40:30;97663.75;;;12.47;57.50
71915;BME280;60387;49.994;14.660;2023-04-21T01:43:03;97651.16;;;12.51;57.66
71915;BME280;60387;49.994;14.660;2023-04-21T01:45:37;97662.31;;;12.49;57.98
71915;BME280;60387;49.994;14.660;2023-04-21T01:48:10;97658.47;;;12.42;58.00
71915;BME280;60387;49.994;14.660;2023-04-21T01:50:43;97665.97;;;12.45;57.79
71915;BME280;60387;49.994;14.660;2023-04-21T01:53:16;97663.25;;;12.45;57.91
71915;BME280;60387;49.994;14.660;2023-04-21T01:55:50;97660.84;;;12.43;57.47
71915;BME280;60387;49.994;14.660;2023-04-21T01:58:23;97657.47;;;12.38;57.48
71915;BME280;60387;49.994;14.660;2023-04-21T02:00:56;97655.09;;;12.45;57.31
71915;BME280;60387;49.994;14.660;2023-04-21T02:03:30;97647.25;;;12.43;57.37
71915;BME280;60387;49.994;14.660;2023-04-21T02:06:03;97656.53;;;12.42;57.78
71915;BME280;60387;49.994;14.660;2023-04-21T02:08:36;97654.28;;;12.36;57.47
71915;BME280;60387;49.994;14.660;2023-04-21T02:11:09;97653.97;;;12.37;57.64
71915;BME280;60387;49.994;14.660;2023-04-21T02:13:43;97644.66;;;12.30;57.87
71915;BME280;60387;49.994;14.660;2023-04-21T02:16:16;97646.78;;;12.33;57.37
71915;BME280;60387;49.994;14.660;2023-04-21T02:18:49;97644.66;;;12.30;57.51
71915;BME280;60387;49.994;14.660;2023-04-21T02:21:23;97652.97;;;12.25;57.44
71915;BME280;60387;49.994;14.660;2023-04-21T02:23:56;97659.19;;;12.25;57.28
71915;BME280;60387;49.994;14.660;2023-04-21T02:26:29;97648.78;;;12.19;58.13
71915;BME280;60387;49.994;14.660;2023-04-21T02:29:04;97654.22;;;12.19;57.82
71915;BME280;60387;49.994;14.660;2023-04-21T02:31:37;97649.22;;;12.12;57.70
71915;BME280;60387;49.994;14.660;2023-04-21T02:34:11;97651.63;;;12.14;57.93
71915;BME280;60387;49.994;14.660;2023-04-21T02:36:44;97648.41;;;12.12;58.25
71915;BME280;60387;49.994;14.660;2023-04-21T02:39:17;97657.56;;;12.16;57.74
71915;BME280;60387;49.994;14.660;2023-04-21T02:41:51;97663.47;;;12.18;57.74
71915;BME280;60387;49.994;14.660;2023-04-21T02:44:24;97656.44;;;12.17;58.02
71915;BME280;60387;49.994;14.660;2023-04-21T02:46:57;97660.28;;;12.16;57.73
71915;BME280;60387;49.994;14.660;2023-04-21T02:49:30;97665.53;;;12.12;57.74
71915;BME280;60387;49.994;14.660;2023-04-21T02:52:04;97661.38;;;12.15;58.03
71915;BME280;60387;49.994;14.660;2023-04-21T02:54:37;97661.63;;;12.05;57.85
71915;BME280;60387;49.994;14.660;2023-04-21T02:57:10;97663.19;;;11.97;58.05
71915;BME280;60387;49.994;14.660;2023-04-21T02:59:44;97651.59;;;12.05;57.92
71915;BME280;60387;49.994;14.660;2023-04-21T03:02:17;97657.78;;;11.97;58.04
71915;BME280;60387;49.994;14.660;2023-04-21T03:04:50;97658.59;;;11.98;58.13
71915;BME280;60387;49.994;14.660;2023-04-21T03:07:23;97648.34;;;11.95;58.32
71915;BME280;60387;49.994;14.660;2023-04-21T03:09:57;97652.78;;;11.91;58.50
71915;BME280;60387;49.994;14.660;2023-04-21T03:12:30;97647.56;;;11.94;57.70
71915;BME280;60387;49.994;14.660;2023-04-21T03:15:04;97660.47;;;11.89;58.22
71915;BME280;60387;49.994;14.660;2023-04-21T03:17:37;97655.44;;;11.82;58.45
71915;BME280;60387;49.994;14.660;2023-04-21T03:20:11;97653.53;;;11.83;58.71
71915;BME280;60387;49.994;14.660;2023-04-21T03:22:44;97647.63;;;11.81;58.27
71915;BME280;60387;49.994;14.660;2023-04-21T03:25:17;97644.59;;;11.82;59.01
71915;BME280;60387;49.994;14.660;2023-04-21T03:27:51;97652.53;;;11.79;58.84
71915;BME280;60387;49.994;14.660;2023-04-21T03:30:24;97650.28;;;11.72;58.90
71915;BME280;60387;49.994;14.660;2023-04-21T03:32:57;97653.00;;;11.72;59.11
71915;BME280;60387;49.994;14.660;2023-04-21T03:35:30;97650.66;;;11.79;58.21
71915;BME280;60387;49.994;14.660;2023-04-21T03:38:04;97654.00;;;11.76;58.48
71915;BME280;60387;49.994;14.660;2023-04-21T03:40:40;97655.25;;;11.79;58.38
71915;BME280;60387;49.994;14.660;2023-04-21T03:43:13;97658.13;;;11.74;59.09
71915;BME280;60387;49.994;14.660;2023-04-21T03:45:46;97655.88;;;11.76;57.97
71915;BME280;60387;49.994;14.660;2023-04-21T03:48:20;97655.44;;;11.82;58.12
71915;BME280;60387;49.994;14.660;2023-04-21T03:50:53;97652.88;;;11.77;58.32
71915;BME280;60387;49.994;14.660;2023-04-21T03:53:26;97652.25;;;11.80;58.31
71915;BME280;60387;49.994;14.660;2023-04-21T03:55:59;97659.91;;;11.78;58.19
71915;BME280;60387;49.994;14.660;2023-04-21T03:58:33;97664.69;;;11.81;58.13
71915;BME280;60387;49.994;14.660;2023-04-21T04:01:07;97667.13;;;11.83;57.98
71915;BME280;60387;49.994;14.660;2023-04-21T04:03:40;97656.75;;;11.85;58.19
71915;BME280;60387;49.994;14.660;2023-04-21T04:06:13;97664.88;;;11.85;57.96
71915;BME280;60387;49.994;14.660;2023-04-21T04:08:46;97664.06;;;11.84;57.86
71915;BME280;60387;49.994;14.660;2023-04-21T04:11:20;97665.19;;;11.83;58.22
71915;BME280;60387;49.994;14.660;2023-04-21T04:13:53;97659.91;;;11.78;57.77
71915;BME280;60387;49.994;14.660;2023-04-21T04:16:26;97672.53;;;11.83;57.82
71915;BME280;60387;49.994;14.660;2023-04-21T04:19:00;97668.22;;;11.82;57.53
71915;BME280;60387;49.994;14.660;2023-04-21T04:21:34;97666.22;;;11.96;57.57
71915;BME280;60387;49.994;14.660;2023-04-21T04:24:07;97674.03;;;12.19;57.74
71915;BME280;60387;49.994;14.660;2023-04-21T04:26:40;97661.69;;;12.52;56.61
71915;BME280;60387;49.994;14.660;2023-04-21T04:29:13;97661.16;;;12.89;55.79
71915;BME280;60387;49.994;14.660;2023-04-21T04:31:48;97671.78;;;13.24;55.38
71915;BME280;60387;49.994;14.660;2023-04-21T04:34:22;97670.69;;;13.59;53.71
71915;BME280;60387;49.994;14.660;2023-04-21T04:36:55;97670.13;;;13.91;53.10
71915;BME280;60387;49.994;14.660;2023-04-21T04:39:29;97684.34;;;14.22;52.31
71915;BME280;60387;49.994;14.660;2023-04-21T04:42:05;97678.16;;;14.51;51.21
71915;BME280;60387;49.994;14.660;2023-04-21T04:44:39;97674.38;;;14.72;51.67
71915;BME280;60387;49.994;14.660;2023-04-21T04:47:12;97680.66;;;14.93;50.58
71915;BME280;60387;49.994;14.660;2023-04-21T04:49:45;97678.78;;;15.14;50.45
71915;BME280;60387;49.994;14.660;2023-04-21T04:52:18;97665.06;;;15.31;50.07
71915;BME280;60387;49.994;14.660;2023-04-21T04:54:52;97671.56;;;15.39;49.30
71915;BME280;60387;49.994;14.660;2023-04-21T04:57:25;97670.88;;;15.42;49.43
71915;BME280;60387;49.994;14.660;2023-04-21T04:59:58;97665.81;;;15.52;48.51
71915;BME280;60387;49.994;14.660;2023-04-21T05:02:32;97667.22;;;15.58;48.91
71915;BME280;60387;49.994;14.660;2023-04-21T05:05:06;97674.34;;;15.71;48.17
71915;BME280;60387;49.994;14.660;2023-04-21T05:07:39;97678.34;;;15.74;48.96
71915;BME280;60387;49.994;14.660;2023-04-21T05:10:12;97680.50;;;15.80;48.22
71915;BME280;60387;49.994;14.660;2023-04-21T05:12:46;97674.97;;;15.89;47.59
71915;BME280;60387;49.994;14.660;2023-04-21T05:15:19;97686.47;;;15.82;47.17
71915;BME280;60387;49.994;14.660;2023-04-21T05:17:52;97693.59;;;15.75;47.38
71915;BME280;60387;49.994;14.660;2023-04-21T05:20:26;97694.16;;;15.80;47.14
71915;BME280;60387;49.994;14.660;2023-04-21T05:22:59;97678.59;;;15.81;47.63
71915;BME280;60387;49.994;14.660;2023-04-21T05:25:32;97691.94;;;15.82;47.78
71915;BME280;60387;49.994;14.660;2023-04-21T05:28:05;97684.50;;;15.83;48.21
71915;BME280;60387;49.994;14.660;2023-04-21T05:30:39;97688.31;;;15.90;48.31
71915;BME280;60387;49.994;14.660;2023-04-21T05:33:12;97687.31;;;15.95;47.38
71915;BME280;60387;49.994;14.660;2023-04-21T05:35:45;97686.72;;;15.89;46.69
71915;BME280;60387;49.994;14.660;2023-04-21T05:38:19;97689.06;;;15.79;46.26
71915;BME280;60387;49.994;14.660;2023-04-21T05:40:55;97690.16;;;15.98;47.49
71915;BME280;60387;49.994;14.660;2023-04-21T05:43:28;97690.41;;;16.05;46.68
71915;BME280;60387;49.994;14.660;2023-04-21T05:46:02;97682.38;;;16.21;46.53
71915;BME280;60387;49.994;14.660;2023-04-21T05:48:40;97685.59;;;16.34;46.13
71915;BME280;60387;49.994;14.660;2023-04-21T05:51:13;97683.38;;;16.48;46.27
71915;BME280;60387;49.994;14.660;2023-04-21T05:53:47;97682.34;;;16.53;45.49
71915;BME280;60387;49.994;14.660;2023-04-21T05:56:20;97684.63;;;16.63;45.27
71915;BME280;60387;49.994;14.660;2023-04-21T05:58:53;97684.06;;;16.69;45.27
71915;BME280;60387;49.994;14.660;2023-04-21T06:01:26;97677.34;;;16.79;45.61
71915;BME280;60387;49.994;14.660;2023-04-21T06:04:00;97678.03;;;17.00;44.88
71915;BME280;60387;49.994;14.660;2023-04-21T06:06:33;97676.53;;;17.14;44.02
71915;BME280;60387;49.994;14.660;2023-04-21T06:09:07;97692.16;;;17.26;44.54
71915;BME280;60387;49.994;14.660;2023-04-21T06:11:40;97680.94;;;17.31;44.26
71915;BME280;60387;49.994;14.660;2023-04-21T06:14:13;97683.13;;;17.37;44.37
71915;BME280;60387;49.994;14.660;2023-04-21T06:16:47;97685.69;;;17.58;43.68
71915;BME280;60387;49.994;14.660;2023-04-21T06:19:20;97684.66;;;17.62;43.35
71915;BME280;60387;49.994;14.660;2023-04-21T06:21:55;97667.28;;;17.70;43.03
71915;BME280;60387;49.994;14.660;2023-04-21T06:24:32;97677.63;;;17.89;43.14
71915;BME280;60387;49.994;14.660;2023-04-21T06:27:09;97676.13;;;17.91;43.21
71915;BME280;60387;49.994;14.660;2023-04-21T06:29:43;97679.59;;;18.04;42.92
71915;BME280;60387;49.994;14.660;2023-04-21T06:32:16;97690.78;;;18.11;42.79
71915;BME280;60387;49.994;14.660;2023-04-21T06:34:50;97692.38;;;18.27;42.70
71915;BME280;60387;49.994;14.660;2023-04-21T06:37:23;97693.41;;;18.35;42.03
71915;BME280;60387;49.994;14.660;2023-04-21T06:39:56;97692.44;;;18.43;42.90
71915;BME280;60387;49.994;14.660;2023-04-21T06:42:29;97698.38;;;18.45;41.50
71915;BME280;60387;49.994;14.660;2023-04-21T06:45:03;97693.19;;;18.71;42.67
71915;BME280;60387;49.994;14.660;2023-04-21T06:47:36;97686.00;;;18.82;40.96
71915;BME280;60387;49.994;14.660;2023-04-21T06:50:10;97699.91;;;18.89;41.15
71915;BME280;60387;49.994;14.660;2023-04-21T06:52:43;97703.50;;;19.08;41.16
71915;BME280;60387;49.994;14.660;2023-04-21T06:55:16;97709.16;;;19.15;40.67
71915;BME280;60387;49.994;14.660;2023-04-21T06:57:49;97703.16;;;19.25;40.88
71915;BME280;60387;49.994;14.660;2023-04-21T07:00:26;97704.88;;;19.49;40.90
71915;BME280;60387;49.994;14.660;2023-04-21T07:02:59;97698.97;;;19.66;41.04
71915;BME280;60387;49.994;14.660;2023-04-21T07:05:32;97705.66;;;19.83;41.52
71915;BME280;60387;49.994;14.660;2023-04-21T07:08:06;97706.00;;;20.01;40.53
71915;BME280;60387;49.994;14.660;2023-04-21T07:10:39;97711.53;;;20.20;41.02
71915;BME280;60387;49.994;14.660;2023-04-21T07:13:12;97706.50;;;20.44;40.76
71915;BME280;60387;49.994;14.660;2023-04-21T07:15:45;97696.66;;;20.66;39.93
71915;BME280;60387;49.994;14.660;2023-04-21T07:18:19;97701.56;;;20.76;39.17
71915;BME280;60387;49.994;14.660;2023-04-21T07:20:52;97707.19;;;21.05;39.74
71915;BME280;60387;49.994;14.660;2023-04-21T07:23:25;97698.19;;;21.31;39.33
71915;BME280;60387;49.994;14.660;2023-04-21T07:25:59;97708.59;;;21.44;37.00
71915;BME280;60387;49.994;14.660;2023-04-21T07:28:32;97699.00;;;21.61;37.19
71915;BME280;60387;49.994;14.660;2023-04-21T07:31:05;97705.16;;;21.77;37.15
71915;BME280;60387;49.994;14.660;2023-04-21T07:33:39;97701.28;;;21.81;36.63
71915;BME280;60387;49.994;14.660;2023-04-21T07:36:12;97709.06;;;22.05;36.56
71915;BME280;60387;49.994;14.660;2023-04-21T07:38:45;97702.22;;;22.25;38.03
71915;BME280;60387;49.994;14.660;2023-04-21T07:41:19;97708.09;;;22.57;36.37
71915;BME280;60387;49.994;14.660;2023-04-21T07:43:52;97720.91;;;22.75;35.56
71915;BME280;60387;49.994;14.660;2023-04-21T07:46:25;97709.13;;;22.82;34.70
71915;BME280;60387;49.994;14.660;2023-04-21T07:48:59;97711.16;;;22.85;34.13
71915;BME280;60387;49.994;14.660;2023-04-21T07:51:32;97703.72;;;22.92;35.33
71915;BME280;60387;49.994;14.660;2023-04-21T07:54:05;97711.66;;;22.97;33.60
71915;BME280;60387;49.994;14.660;2023-04-21T07:56:39;97702.75;;;23.18;35.84
71915;BME280;60387;49.994;14.660;2023-04-21T07:59:12;97712.88;;;23.50;33.51
71915;BME280;60387;49.994;14.660;2023-04-21T08:01:45;97699.50;;;23.55;32.82
71915;BME280;60387;49.994;14.660;2023-04-21T08:04:19;97703.53;;;23.75;34.94
71915;BME280;60387;49.994;14.660;2023-04-21T08:06:52;97715.50;;;23.86;33.54
71915;BME280;60387;49.994;14.660;2023-04-21T08:09:26;97730.94;;;23.87;31.61
71915;BME280;60387;49.994;14.660;2023-04-21T08:11:59;97705.91;;;23.73;32.94
71915;BME280;60387;49.994;14.660;2023-04-21T08:14:32;97695.19;;;23.61;33.38
71915;BME280;60387;49.994;14.660;2023-04-21T08:17:06;97705.50;;;23.71;33.44
71915;BME280;60387;49.994;14.660;2023-04-21T08:19:39;97695.41;;;23.96;33.01
71915;BME280;60387;49.994;14.660;2023-04-21T08:22:12;97701.41;;;24.16;31.94
71915;BME280;60387;49.994;14.660;2023-04-21T08:24:45;97707.31;;;24.07;31.32
71915;BME280;60387;49.994;14.660;2023-04-21T08:27:19;97691.38;;;23.87;32.09
71915;BME280;60387;49.994;14.660;2023-04-21T08:29:52;97694.06;;;23.76;31.28
71915;BME280;60387;49.994;14.660;2023-04-21T08:32:25;97686.84;;;23.54;32.85
71915;BME280;60387;49.994;14.660;2023-04-21T08:34:58;97682.13;;;23.62;31.83
71915;BME280;60387;49.994;14.660;2023-04-21T08:37:35;97696.34;;;23.57;30.83
71915;BME280;60387;49.994;14.660;2023-04-21T08:40:08;97691.66;;;23.68;30.82
71915;BME280;60387;49.994;14.660;2023-04-21T08:42:42;97686.97;;;23.79;31.94
71915;BME280;60387;49.994;14.660;2023-04-21T08:45:15;97693.38;;;23.86;31.54
71915;BME280;60387;49.994;14.660;2023-04-21T08:47:49;97696.56;;;23.92;30.78
71915;BME280;60387;49.994;14.660;2023-04-21T08:50:27;97688.56;;;23.80;30.14
71915;BME280;60387;49.994;14.660;2023-04-21T08:53:00;97696.47;;;23.81;31.38
71915;BME280;60387;49.994;14.660;2023-04-21T08:55:33;97696.97;;;23.94;29.83
71915;BME280;60387;49.994;14.660;2023-04-21T08:58:07;97690.28;;;24.02;30.60
71915;BME280;60387;49.994;14.660;2023-04-21T09:00:40;97685.47;;;23.85;29.81
71915;BME280;60387;49.994;14.660;2023-04-21T09:03:23;97696.00;;;23.69;30.27
71915;BME280;60387;49.994;14.660;2023-04-21T09:06:00;97694.50;;;23.82;30.90
71915;BME280;60387;49.994;14.660;2023-04-21T09:08:40;97686.50;;;23.66;29.42
71915;BME280;60387;49.994;14.660;2023-04-21T09:11:14;97687.72;;;23.69;29.71
71915;BME280;60387;49.994;14.660;2023-04-21T09:13:47;97681.84;;;23.77;30.43
71915;BME280;60387;49.994;14.660;2023-04-21T09:16:20;97693.31;;;23.83;30.25
71915;BME280;60387;49.994;14.660;2023-04-21T09:18:54;97671.56;;;23.81;29.73
71915;BME280;60387;49.994;14.660;2023-04-21T09:21:27;97692.72;;;24.24;29.67
71915;BME280;60387;49.994;14.660;2023-04-21T09:24:03;97695.97;;;24.47;28.78
71915;BME280;60387;49.994;14.660;2023-04-21T09:26:37;97696.03;;;24.61;29.86
71915;BME280;60387;49.994;14.660;2023-04-21T09:29:10;97688.13;;;24.70;29.07
71915;BME280;60387;49.994;14.660;2023-04-21T09:31:44;97682.59;;;24.77;29.70
71915;BME280;60387;49.994;14.660;2023-04-21T09:34:24;97685.00;;;24.89;29.85
71915;BME280;60387;49.994;14.660;2023-04-21T09:37:02;97673.50;;;24.98;29.47
71915;BME280;60387;49.994;14.660;2023-04-21T09:39:36;97680.22;;;24.76;29.14
71915;BME280;60387;49.994;14.660;2023-04-21T09:42:09;97691.69;;;24.64;29.92
71915;BME280;60387;49.994;14.660;2023-04-21T09:44:43;97681.00;;;24.55;29.40
71915;BME280;60387;49.994;14.660;2023-04-21T09:47:16;97679.81;;;24.67;29.44
71915;BME280;60387;49.994;14.660;2023-04-21T09:49:52;97677.44;;;24.83;29.84
71915;BME280;60387;49.994;14.660;2023-04-21T09:52:27;97688.16;;;24.98;28.44
71915;BME280;60387;49.994;14.660;2023-04-21T09:55:02;97679.84;;;24.95;28.05
71915;BME280;60387;49.994;14.660;2023-04-21T09:57:38;97681.03;;;24.94;27.90
71915;BME280;60387;49.994;14.660;2023-04-21T10:00:12;97671.13;;;24.93;28.68
71915;BME280;60387;49.994;14.660;2023-04-21T10:02:50;97686.56;;;25.08;28.47
71915;BME280;60387;49.994;14.660;2023-04-21T10:05:23;97673.91;;;25.21;27.38
71915;BME280;60387;49.994;14.660;2023-04-21T10:07:57;97660.06;;;25.31;27.81
71915;BME280;60387;49.994;14.660;2023-04-21T10:10:30;97655.66;;;25.44;27.33
71915;BME280;60387;49.994;14.660;2023-04-21T10:13:04;97673.91;;;25.38;28.81
71915;BME280;60387;49.994;14.660;2023-04-21T10:15:39;97671.91;;;25.18;28.08
71915;BME280;60387;49.994;14.660;2023-04-21T10:18:22;97670.72;;;24.94;28.06
71915;BME280;60387;49.994;14.660;2023-04-21T10:26:27;97657.25;;;25.07;27.37
71915;BME280;60387;49.994;14.660;2023-04-21T10:29:05;97672.31;;;24.81;26.97
71915;BME280;60387;49.994;14.660;2023-04-21T10:31:53;97660.25;;;24.11;28.01
71915;BME280;60387;49.994;14.660;2023-04-21T10:34:33;97663.34;;;23.88;28.14
71915;BME280;60387;49.994;14.660;2023-04-21T10:37:09;97651.66;;;23.55;29.30
71915;BME280;60387;49.994;14.660;2023-04-21T10:39:51;97659.50;;;23.39;29.70
71915;BME280;60387;49.994;14.660;2023-04-21T10:42:27;97647.47;;;23.14;29.41
71915;BME280;60387;49.994;14.660;2023-04-21T10:45:05;97653.31;;;23.09;30.01
71915;BME280;60387;49.994;14.660;2023-04-21T10:47:40;97664.13;;;23.25;30.05
71915;BME280;60387;49.994;14.660;2023-04-21T10:50:18;97650.28;;;23.25;29.66
71915;BME280;60387;49.994;14.660;2023-04-21T10:52:58;97647.44;;;23.11;29.69
71915;BME280;60387;49.994;14.660;2023-04-21T10:55:31;97642.38;;;23.20;29.79
71915;BME280;60387;49.994;14.660;2023-04-21T10:58:07;97643.16;;;23.20;29.95
71915;BME280;60387;49.994;14.660;2023-04-21T11:00:40;97647.81;;;23.13;29.12
71915;BME280;60387;49.994;14.660;2023-04-21T11:03:13;97641.03;;;23.03;29.55
71915;BME280;60387;49.994;14.660;2023-04-21T11:05:47;97639.03;;;23.00;29.50
71915;BME280;60387;49.994;14.660;2023-04-21T11:08:20;97632.13;;;23.24;29.60
71915;BME280;60387;49.994;14.660;2023-04-21T11:10:54;97638.88;;;23.30;29.17
71915;BME280;60387;49.994;14.660;2023-04-21T11:13:28;97648.66;;;23.17;29.26
71915;BME280;60387;49.994;14.660;2023-04-21T11:16:04;97644.72;;;23.14;28.74
71915;BME280;60387;49.994;14.660;2023-04-21T11:18:43;97633.75;;;23.28;29.17
71915;BME280;60387;49.994;14.660;2023-04-21T11:21:17;97629.31;;;23.17;28.54
71915;BME280;60387;49.994;14.660;2023-04-21T11:23:55;97643.53;;;23.15;28.58
71915;BME280;60387;49.994;14.660;2023-04-21T11:26:30;97636.09;;;22.79;29.01
71915;BME280;60387;49.994;14.660;2023-04-21T11:29:06;97617.84;;;22.64;29.46
71915;BME280;60387;49.994;14.660;2023-04-21T11:31:42;97629.06;;;22.85;29.07
71915;BME280;60387;49.994;14.660;2023-04-21T11:34:19;97632.69;;;22.96;29.55
71915;BME280;60387;49.994;14.660;2023-04-21T11:36:53;97625.19;;;22.97;29.26
71915;BME280;60387;49.994;14.660;2023-04-21T11:39:26;97628.22;;;23.32;29.35
71915;BME280;60387;49.994;14.660;2023-04-21T11:41:59;97625.63;;;23.63;28.10
71915;BME280;60387;49.994;14.660;2023-04-21T11:44:40;97629.25;;;23.81;28.05
71915;BME280;60387;49.994;14.660;2023-04-21T11:49:59;97626.84;;;23.69;27.66
71915;BME280;60387;49.994;14.660;2023-04-21T11:52:34;97622.09;;;23.62;28.72
71915;BME280;60387;49.994;14.660;2023-04-21T11:55:13;97633.88;;;23.49;27.26
71915;BME280;60387;49.994;14.660;2023-04-21T11:57:48;97625.16;;;23.47;26.94
71915;BME280;60387;49.994;14.660;2023-04-21T12:00:22;97622.38;;;23.47;27.04
71915;BME280;60387;49.994;14.660;2023-04-21T12:02:55;97618.06;;;23.49;26.69
71915;BME280;60387;49.994;14.660;2023-04-21T12:05:35;97616.47;;;23.48;26.65
71915;BME280;60387;49.994;14.660;2023-04-21T12:08:13;97621.94;;;23.38;26.29
71915;BME280;60387;49.994;14.660;2023-04-21T12:10:47;97616.47;;;23.45;26.68
71915;BME280;60387;49.994;14.660;2023-04-21T12:13:22;97618.53;;;23.62;27.53
71915;BME280;60387;49.994;14.660;2023-04-21T12:15:55;97609.03;;;23.59;26.76
71915;BME280;60387;49.994;14.660;2023-04-21T12:18:30;97618.19;;;23.81;26.25
71915;BME280;60387;49.994;14.660;2023-04-21T12:21:04;97600.16;;;24.15;26.67
71915;BME280;60387;49.994;14.660;2023-04-21T12:23:37;97601.44;;;24.56;26.12
71915;BME280;60387;49.994;14.660;2023-04-21T12:26:11;97606.59;;;24.68;25.49
71915;BME280;60387;49.994;14.660;2023-04-21T12:28:44;97623.97;;;24.51;25.17
71915;BME280;60387;49.994;14.660;2023-04-21T12:31:17;97594.25;;;24.41;25.20
71915;BME280;60387;49.994;14.660;2023-04-21T12:33:50;97612.06;;;24.40;26.19
71915;BME280;60387;49.994;14.660;2023-04-21T12:36:24;97591.50;;;24.37;26.67
71915;BME280;60387;49.994;14.660;2023-04-21T12:38:57;97595.09;;;24.52;26.28
71915;BME280;60387;49.994;14.660;2023-04-21T12:41:30;97602.63;;;24.62;26.62
71915;BME280;60387;49.994;14.660;2023-04-21T12:44:04;97598.69;;;24.84;25.45
71915;BME280;60387;49.994;14.660;2023-04-21T12:46:38;97595.91;;;24.84;25.81
71915;BME280;60387;49.994;14.660;2023-04-21T12:49:11;97593.13;;;24.98;25.33
71915;BME280;60387;49.994;14.660;2023-04-21T12:51:45;97593.53;;;24.93;26.01
71915;BME280;60387;49.994;14.660;2023-04-21T12:54:18;97597.47;;;24.92;25.55
71915;BME280;60387;49.994;14.660;2023-04-21T12:56:51;97590.38;;;24.77;24.97
71915;BME280;60387;49.994;14.660;2023-04-21T12:59:25;97592.34;;;24.73;25.44
71915;BME280;60387;49.994;14.660;2023-04-21T13:01:58;97580.88;;;24.88;25.45
71915;BME280;60387;49.994;14.660;2023-04-21T13:04:31;97577.25;;;25.09;25.14
71915;BME280;60387;49.994;14.660;2023-04-21T13:07:04;97570.88;;;25.40;24.79
71915;BME280;60387;49.994;14.660;2023-04-21T13:09:38;97579.50;;;25.70;24.48
71915;BME280;60387;49.994;14.660;2023-04-21T13:12:11;97585.78;;;25.81;23.96
71915;BME280;60387;49.994;14.660;2023-04-21T13:14:44;97567.56;;;25.80;25.11
71915;BME280;60387;49.994;14.660;2023-04-21T13:17:18;97573.47;;;25.96;25.39
71915;BME280;60387;49.994;14.660;2023-04-21T13:19:51;97576.63;;;25.91;24.25
71915;BME280;60387;49.994;14.660;2023-04-21T13:22:24;97581.91;;;25.61;23.57
71915;BME280;60387;49.994;14.660;2023-04-21T13:24:57;97593.88;;;25.30;23.61
71915;BME280;60387;49.994;14.660;2023-04-21T13:27:31;97576.88;;;25.07;24.03
71915;BME280;60387;49.994;14.660;2023-04-21T13:30:09;97570.97;;;24.73;24.85
71915;BME280;60387;49.994;14.660;2023-04-21T13:32:43;97567.78;;;24.47;25.45